sensor_id;sensor_type;location;lat;lon;timestamp;P1;durP1;ratioP1;P2;durP2;ratioP2
21114;SDS011;10715;48.546;9.896;2023-07-28T00:00:21;1.60;;;1.00;;
21114;SDS011;10715;48.546;9.896;2023-07-28T00:02:46;1.57;;;0.83;;
21114;SDS011;10715;48.546;9.896;2023-07-28T00:05:12;3.63;;;0.93;;
21114;SDS011;10715;48.546;9.896;2023-07-28T00:07:38;1.50;;;1.10;;
21114;SDS011;10715;48.546;9.896;2023-07-28T00:10:03;2.23;;;1.10;;
21114;SDS011;10715;48.546;9.896;2023-07-28T00:12:30;4.37;;;1.00;;
21114;SDS011;10715;48.546;9.896;2023-07-28T00:14:55;2.00;;;1.70;;
21114;SDS011;10715;48.546;9.896;2023-07-28T00:17:21;3.83;;;1.03;;
21114;SDS011;10715;48.546;9.896;2023-07-28T00:19:47;3.10;;;0.90;;
21114;SDS011;10715;48.546;9.896;2023-07-28T00:22:12;1.20;;;0.70;;
21114;SDS011;10715;48.546;9.896;2023-07-28T00:24:38;1.70;;;1.23;;
21114;SDS011;10715;48.546;9.896;2023-07-28T00:27:04;1.23;;;0.60;;
21114;SDS011;10715;48.546;9.896;2023-07-28T00:29:30;1.73;;;1.00;;
21114;SDS011;10715;48.546;9.896;2023-07-28T00:31:56;2.90;;;0.97;;
21114;SDS011;10715;48.546;9.896;2023-07-28T00:34:21;3.60;;;1.27;;
21114;SDS011;10715;48.546;9.896;2023-07-28T00:36:47;1.37;;;0.93;;
21114;SDS011;10715;48.546;9.896;2023-07-28T00:39:12;1.30;;;0.80;;
21114;SDS011;10715;48.546;9.896;2023-07-28T00:41:38;1.47;;;0.80;;
21114;SDS011;10715;48.546;9.896;2023-07-28T00:44:04;1.70;;;1.10;;
21114;SDS011;10715;48.546;9.896;2023-07-28T00:46:30;1.10;;;1.00;;
21114;SDS011;10715;48.546;9.896;2023-07-28T00:48:56;1.20;;;1.00;;
21114;SDS011;10715;48.546;9.896;2023-07-28T00:51:21;1.57;;;1.47;;
21114;SDS011;10715;48.546;9.896;2023-07-28T00:53:47;3.03;;;1.10;;
21114;SDS011;10715;48.546;9.896;2023-07-28T00:56:13;1.63;;;0.93;;
21114;SDS011;10715;48.546;9.896;2023-07-28T00:58:40;2.10;;;1.10;;
21114;SDS011;10715;48.546;9.896;2023-07-28T01:01:06;2.30;;;1.10;;
21114;SDS011;10715;48.546;9.896;2023-07-28T01:03:31;1.43;;;1.10;;
21114;SDS011;10715;48.546;9.896;2023-07-28T01:08:30;1.30;;;1.20;;
21114;SDS011;10715;48.546;9.896;2023-07-28T01:11:01;1.40;;;0.90;;
21114;SDS011;10715;48.546;9.896;2023-07-28T01:13:26;2.80;;;0.90;;
21114;SDS011;10715;48.546;9.896;2023-07-28T01:15:54;1.50;;;1.07;;
21114;SDS011;10715;48.546;9.896;2023-07-28T01:18:20;2.70;;;0.90;;
21114;SDS011;10715;48.546;9.896;2023-07-28T01:20:46;1.23;;;0.80;;
21114;SDS011;10715;48.546;9.896;2023-07-28T01:26:05;1.63;;;1.03;;
21114;SDS011;10715;48.546;9.896;2023-07-28T01:28:34;1.60;;;1.23;;
21114;SDS011;10715;48.546;9.896;2023-07-28T01:31:02;1.27;;;1.13;;
21114;SDS011;10715;48.546;9.896;2023-07-28T01:33:28;2.30;;;1.00;;
21114;SDS011;10715;48.546;9.896;2023-07-28T01:35:54;1.23;;;0.60;;
21114;SDS011;10715;48.546;9.896;2023-07-28T01:38:20;1.37;;;0.67;;
21114;SDS011;10715;48.546;9.896;2023-07-28T01:40:46;1.83;;;0.70;;
21114;SDS011;10715;48.546;9.896;2023-07-28T01:43:12;1.33;;;0.90;;
21114;SDS011;10715;48.546;9.896;2023-07-28T01:45:38;1.20;;;0.60;;
21114;SDS011;10715;48.546;9.896;2023-07-28T01:48:03;1.70;;;1.20;;
21114;SDS011;10715;48.546;9.896;2023-07-28T01:50:30;1.13;;;0.80;;
21114;SDS011;10715;48.546;9.896;2023-07-28T01:52:55;1.20;;;0.80;;
21114;SDS011;10715;48.546;9.896;2023-07-28T01:55:21;1.23;;;0.90;;
21114;SDS011;10715;48.546;9.896;2023-07-28T01:57:54;1.53;;;0.90;;
21114;SDS011;10715;48.546;9.896;2023-07-28T02:00:21;1.03;;;0.67;;
21114;SDS011;10715;48.546;9.896;2023-07-28T02:02:48;1.47;;;1.00;;
21114;SDS011;10715;48.546;9.896;2023-07-28T02:05:14;2.23;;;0.93;;
21114;SDS011;10715;48.546;9.896;2023-07-28T02:07:39;2.07;;;1.10;;
21114;SDS011;10715;48.546;9.896;2023-07-28T02:10:05;1.37;;;1.00;;
21114;SDS011;10715;48.546;9.896;2023-07-28T02:12:31;2.80;;;1.00;;
21114;SDS011;10715;48.546;9.896;2023-07-28T02:14:57;1.70;;;1.13;;
21114;SDS011;10715;48.546;9.896;2023-07-28T02:17:23;2.00;;;0.80;;
21114;SDS011;10715;48.546;9.896;2023-07-28T02:19:48;1.30;;;0.73;;
21114;SDS011;10715;48.546;9.896;2023-07-28T02:22:14;1.50;;;0.80;;
21114;SDS011;10715;48.546;9.896;2023-07-28T02:24:40;1.63;;;1.33;;
21114;SDS011;10715;48.546;9.896;2023-07-28T02:27:06;2.73;;;1.20;;
21114;SDS011;10715;48.546;9.896;2023-07-28T02:29:31;2.97;;;1.20;;
21114;SDS011;10715;48.546;9.896;2023-07-28T02:31:57;1.53;;;1.20;;
21114;SDS011;10715;48.546;9.896;2023-07-28T02:34:23;2.93;;;1.40;;
21114;SDS011;10715;48.546;9.896;2023-07-28T02:36:48;2.50;;;1.17;;
21114;SDS011;10715;48.546;9.896;2023-07-28T02:39:15;1.10;;;0.80;;
21114;SDS011;10715;48.546;9.896;2023-07-28T02:41:40;2.20;;;1.57;;
21114;SDS011;10715;48.546;9.896;2023-07-28T02:44:07;1.53;;;0.90;;
21114;SDS011;10715;48.546;9.896;2023-07-28T02:46:32;2.30;;;1.03;;
21114;SDS011;10715;48.546;9.896;2023-07-28T02:48:58;1.10;;;0.70;;
21114;SDS011;10715;48.546;9.896;2023-07-28T02:51:24;4.30;;;1.20;;
21114;SDS011;10715;48.546;9.896;2023-07-28T02:53:49;1.60;;;1.00;;
21114;SDS011;10715;48.546;9.896;2023-07-28T02:56:15;2.17;;;0.90;;
21114;SDS011;10715;48.546;9.896;2023-07-28T02:58:41;1.73;;;0.97;;
21114;SDS011;10715;48.546;9.896;2023-07-28T03:01:06;2.20;;;1.00;;
21114;SDS011;10715;48.546;9.896;2023-07-28T03:03:32;1.40;;;0.80;;
21114;SDS011;10715;48.546;9.896;2023-07-28T03:05:58;1.43;;;0.90;;
21114;SDS011;10715;48.546;9.896;2023-07-28T03:08:23;1.30;;;0.80;;
21114;SDS011;10715;48.546;9.896;2023-07-28T03:10:49;1.53;;;0.90;;
21114;SDS011;10715;48.546;9.896;2023-07-28T03:13:15;2.50;;;1.60;;
21114;SDS011;10715;48.546;9.896;2023-07-28T03:15:40;1.40;;;0.70;;
21114;SDS011;10715;48.546;9.896;2023-07-28T03:18:06;1.77;;;0.73;;
21114;SDS011;10715;48.546;9.896;2023-07-28T03:20:32;2.73;;;1.60;;
21114;SDS011;10715;48.546;9.896;2023-07-28T03:22:57;1.47;;;0.90;;
21114;SDS011;10715;48.546;9.896;2023-07-28T03:25:23;1.30;;;0.90;;
21114;SDS011;10715;48.546;9.896;2023-07-28T03:27:49;2.47;;;1.70;;
21114;SDS011;10715;48.546;9.896;2023-07-28T03:30:14;3.27;;;0.90;;
21114;SDS011;10715;48.546;9.896;2023-07-28T03:32:40;1.97;;;1.20;;
21114;SDS011;10715;48.546;9.896;2023-07-28T03:35:06;1.80;;;1.20;;
21114;SDS011;10715;48.546;9.896;2023-07-28T03:37:33;2.27;;;1.23;;
21114;SDS011;10715;48.546;9.896;2023-07-28T03:39:59;2.00;;;1.17;;
21114;SDS011;10715;48.546;9.896;2023-07-28T03:42:25;1.50;;;1.20;;
21114;SDS011;10715;48.546;9.896;2023-07-28T03:44:51;2.17;;;0.80;;
21114;SDS011;10715;48.546;9.896;2023-07-28T03:47:17;1.40;;;1.13;;
21114;SDS011;10715;48.546;9.896;2023-07-28T03:49:44;1.20;;;0.70;;
21114;SDS011;10715;48.546;9.896;2023-07-28T03:52:09;1.50;;;0.97;;
21114;SDS011;10715;48.546;9.896;2023-07-28T03:54:35;2.30;;;1.33;;
21114;SDS011;10715;48.546;9.896;2023-07-28T03:57:01;3.77;;;0.93;;
21114;SDS011;10715;48.546;9.896;2023-07-28T03:59:26;1.53;;;1.40;;
21114;SDS011;10715;48.546;9.896;2023-07-28T04:01:52;5.87;;;0.90;;
21114;SDS011;10715;48.546;9.896;2023-07-28T04:04:18;1.10;;;0.90;;
21114;SDS011;10715;48.546;9.896;2023-07-28T04:06:44;2.50;;;0.83;;
21114;SDS011;10715;48.546;9.896;2023-07-28T04:09:12;1.37;;;1.27;;
21114;SDS011;10715;48.546;9.896;2023-07-28T04:11:39;28.37;;;1.30;;
21114;SDS011;10715;48.546;9.896;2023-07-28T04:14:08;2.17;;;0.97;;
21114;SDS011;10715;48.546;9.896;2023-07-28T04:16:34;3.07;;;1.33;;
21114;SDS011;10715;48.546;9.896;2023-07-28T04:19:00;1.90;;;1.13;;
21114;SDS011;10715;48.546;9.896;2023-07-28T04:21:26;2.17;;;1.40;;
21114;SDS011;10715;48.546;9.896;2023-07-28T04:23:52;4.13;;;1.80;;
21114;SDS011;10715;48.546;9.896;2023-07-28T04:26:17;4.40;;;1.90;;
21114;SDS011;10715;48.546;9.896;2023-07-28T04:28:43;1.30;;;0.80;;
21114;SDS011;10715;48.546;9.896;2023-07-28T04:31:09;1.30;;;1.17;;
21114;SDS011;10715;48.546;9.896;2023-07-28T04:33:35;1.67;;;1.30;;
21114;SDS011;10715;48.546;9.896;2023-07-28T04:36:04;2.20;;;1.37;;
21114;SDS011;10715;48.546;9.896;2023-07-28T04:38:30;1.90;;;1.23;;
21114;SDS011;10715;48.546;9.896;2023-07-28T04:40:56;1.80;;;1.30;;
21114;SDS011;10715;48.546;9.896;2023-07-28T04:43:21;4.30;;;1.10;;
21114;SDS011;10715;48.546;9.896;2023-07-28T04:45:47;1.70;;;1.47;;
21114;SDS011;10715;48.546;9.896;2023-07-28T04:48:13;2.80;;;1.43;;
21114;SDS011;10715;48.546;9.896;2023-07-28T04:50:38;1.53;;;1.43;;
21114;SDS011;10715;48.546;9.896;2023-07-28T04:53:04;8.00;;;1.30;;
21114;SDS011;10715;48.546;9.896;2023-07-28T04:55:30;2.27;;;1.83;;
21114;SDS011;10715;48.546;9.896;2023-07-28T04:57:56;4.53;;;2.10;;
21114;SDS011;10715;48.546;9.896;2023-07-28T05:00:22;2.40;;;2.20;;
21114;SDS011;10715;48.546;9.896;2023-07-28T05:02:48;1.73;;;1.33;;
21114;SDS011;10715;48.546;9.896;2023-07-28T05:05:14;3.10;;;2.90;;
21114;SDS011;10715;48.546;9.896;2023-07-28T05:07:40;5.03;;;3.47;;
21114;SDS011;10715;48.546;9.896;2023-07-28T05:10:07;3.93;;;3.33;;
21114;SDS011;10715;48.546;9.896;2023-07-28T05:12:33;3.13;;;2.87;;
21114;SDS011;10715;48.546;9.896;2023-07-28T05:14:58;5.33;;;2.67;;
21114;SDS011;10715;48.546;9.896;2023-07-28T05:17:24;3.80;;;2.57;;
21114;SDS011;10715;48.546;9.896;2023-07-28T05:19:50;2.20;;;2.00;;
21114;SDS011;10715;48.546;9.896;2023-07-28T05:22:16;8.47;;;2.67;;
21114;SDS011;10715;48.546;9.896;2023-07-28T05:24:42;5.10;;;2.40;;
21114;SDS011;10715;48.546;9.896;2023-07-28T05:27:11;2.60;;;1.43;;
21114;SDS011;10715;48.546;9.896;2023-07-28T05:29:37;1.77;;;1.40;;
21114;SDS011;10715;48.546;9.896;2023-07-28T05:32:03;1.60;;;1.33;;
21114;SDS011;10715;48.546;9.896;2023-07-28T05:34:29;2.83;;;2.43;;
21114;SDS011;10715;48.546;9.896;2023-07-28T05:36:55;2.30;;;1.80;;
21114;SDS011;10715;48.546;9.896;2023-07-28T05:39:21;3.13;;;2.27;;
21114;SDS011;10715;48.546;9.896;2023-07-28T05:41:47;2.40;;;2.20;;
21114;SDS011;10715;48.546;9.896;2023-07-28T05:44:12;10.23;;;1.47;;
21114;SDS011;10715;48.546;9.896;2023-07-28T05:46:38;5.90;;;2.37;;
21114;SDS011;10715;48.546;9.896;2023-07-28T05:49:04;4.10;;;3.70;;
21114;SDS011;10715;48.546;9.896;2023-07-28T05:51:30;3.63;;;2.00;;
21114;SDS011;10715;48.546;9.896;2023-07-28T05:53:56;2.70;;;1.77;;
21114;SDS011;10715;48.546;9.896;2023-07-28T05:56:22;2.33;;;2.13;;
21114;SDS011;10715;48.546;9.896;2023-07-28T05:58:47;2.43;;;2.07;;
21114;SDS011;10715;48.546;9.896;2023-07-28T06:01:14;5.40;;;2.60;;
21114;SDS011;10715;48.546;9.896;2023-07-28T06:03:39;3.07;;;2.87;;
21114;SDS011;10715;48.546;9.896;2023-07-28T06:06:05;1.73;;;1.63;;
21114;SDS011;10715;48.546;9.896;2023-07-28T06:08:32;2.37;;;2.00;;
21114;SDS011;10715;48.546;9.896;2023-07-28T06:10:58;2.97;;;2.23;;
21114;SDS011;10715;48.546;9.896;2023-07-28T06:13:23;3.47;;;2.20;;
21114;SDS011;10715;48.546;9.896;2023-07-28T06:15:49;2.40;;;1.57;;
21114;SDS011;10715;48.546;9.896;2023-07-28T06:18:15;2.00;;;1.87;;
21114;SDS011;10715;48.546;9.896;2023-07-28T06:20:44;2.60;;;1.83;;
21114;SDS011;10715;48.546;9.896;2023-07-28T06:23:10;1.97;;;1.87;;
21114;SDS011;10715;48.546;9.896;2023-07-28T06:25:36;2.10;;;1.90;;
21114;SDS011;10715;48.546;9.896;2023-07-28T06:28:07;1.90;;;1.80;;
21114;SDS011;10715;48.546;9.896;2023-07-28T06:30:33;5.70;;;4.87;;
21114;SDS011;10715;48.546;9.896;2023-07-28T06:32:58;17.53;;;12.53;;
21114;SDS011;10715;48.546;9.896;2023-07-28T06:35:24;12.10;;;10.80;;
21114;SDS011;10715;48.546;9.896;2023-07-28T06:37:50;6.83;;;6.10;;
21114;SDS011;10715;48.546;9.896;2023-07-28T06:40:15;6.70;;;6.20;;
21114;SDS011;10715;48.546;9.896;2023-07-28T06:42:41;4.60;;;4.30;;
21114;SDS011;10715;48.546;9.896;2023-07-28T06:45:07;4.80;;;4.50;;
21114;SDS011;10715;48.546;9.896;2023-07-28T06:47:33;14.37;;;7.87;;
21114;SDS011;10715;48.546;9.896;2023-07-28T06:49:59;8.97;;;7.87;;
21114;SDS011;10715;48.546;9.896;2023-07-28T06:52:25;56.47;;;24.40;;
21114;SDS011;10715;48.546;9.896;2023-07-28T06:54:50;75.30;;;30.20;;
21114;SDS011;10715;48.546;9.896;2023-07-28T06:57:16;67.40;;;30.27;;
21114;SDS011;10715;48.546;9.896;2023-07-28T06:59:42;45.43;;;20.83;;
21114;SDS011;10715;48.546;9.896;2023-07-28T07:02:07;32.80;;;14.93;;
21114;SDS011;10715;48.546;9.896;2023-07-28T07:04:34;15.57;;;9.10;;
21114;SDS011;10715;48.546;9.896;2023-07-28T07:07:00;13.03;;;8.43;;
21114;SDS011;10715;48.546;9.896;2023-07-28T07:09:25;9.47;;;6.47;;
21114;SDS011;10715;48.546;9.896;2023-07-28T07:11:51;5.90;;;4.33;;
21114;SDS011;10715;48.546;9.896;2023-07-28T07:14:17;4.53;;;3.37;;
21114;SDS011;10715;48.546;9.896;2023-07-28T07:16:42;5.97;;;3.63;;
21114;SDS011;10715;48.546;9.896;2023-07-28T07:19:08;3.50;;;2.70;;
21114;SDS011;10715;48.546;9.896;2023-07-28T07:21:34;4.10;;;3.47;;
21114;SDS011;10715;48.546;9.896;2023-07-28T07:24:00;5.00;;;2.63;;
21114;SDS011;10715;48.546;9.896;2023-07-28T07:26:27;4.47;;;2.83;;
21114;SDS011;10715;48.546;9.896;2023-07-28T07:28:53;2.83;;;2.57;;
21114;SDS011;10715;48.546;9.896;2023-07-28T07:31:19;2.90;;;2.23;;
21114;SDS011;10715;48.546;9.896;2023-07-28T07:33:44;2.63;;;2.43;;
21114;SDS011;10715;48.546;9.896;2023-07-28T07:36:14;6.03;;;1.80;;
21114;SDS011;10715;48.546;9.896;2023-07-28T07:38:41;3.03;;;2.67;;
21114;SDS011;10715;48.546;9.896;2023-07-28T07:41:07;3.53;;;2.37;;
21114;SDS011;10715;48.546;9.896;2023-07-28T07:43:34;2.33;;;2.13;;
21114;SDS011;10715;48.546;9.896;2023-07-28T07:45:59;5.13;;;2.10;;
21114;SDS011;10715;48.546;9.896;2023-07-28T07:48:25;2.10;;;1.90;;
21114;SDS011;10715;48.546;9.896;2023-07-28T07:50:51;2.13;;;1.60;;
21114;SDS011;10715;48.546;9.896;2023-07-28T07:53:17;3.60;;;2.20;;
21114;SDS011;10715;48.546;9.896;2023-07-28T07:55:43;2.37;;;1.83;;
21114;SDS011;10715;48.546;9.896;2023-07-28T07:58:08;2.97;;;2.77;;
21114;SDS011;10715;48.546;9.896;2023-07-28T08:00:35;1.90;;;1.73;;
21114;SDS011;10715;48.546;9.896;2023-07-28T08:03:02;3.50;;;1.87;;
21114;SDS011;10715;48.546;9.896;2023-07-28T08:05:29;2.37;;;2.17;;
21114;SDS011;10715;48.546;9.896;2023-07-28T08:07:55;5.03;;;1.83;;
21114;SDS011;10715;48.546;9.896;2023-07-28T08:10:21;2.23;;;2.10;;
21114;SDS011;10715;48.546;9.896;2023-07-28T08:12:47;3.63;;;1.83;;
21114;SDS011;10715;48.546;9.896;2023-07-28T08:15:13;2.93;;;2.23;;
21114;SDS011;10715;48.546;9.896;2023-07-28T08:17:39;2.00;;;1.73;;
21114;SDS011;10715;48.546;9.896;2023-07-28T08:20:08;2.30;;;2.10;;
21114;SDS011;10715;48.546;9.896;2023-07-28T08:22:34;1.53;;;1.43;;
21114;SDS011;10715;48.546;9.896;2023-07-28T08:25:00;2.13;;;1.60;;
21114;SDS011;10715;48.546;9.896;2023-07-28T08:27:25;2.00;;;1.80;;
21114;SDS011;10715;48.546;9.896;2023-07-28T08:29:51;6.70;;;1.77;;
21114;SDS011;10715;48.546;9.896;2023-07-28T08:32:17;1.63;;;1.53;;
21114;SDS011;10715;48.546;9.896;2023-07-28T08:34:42;2.13;;;1.80;;
21114;SDS011;10715;48.546;9.896;2023-07-28T08:37:08;2.73;;;1.97;;
21114;SDS011;10715;48.546;9.896;2023-07-28T08:39:34;1.80;;;1.37;;
21114;SDS011;10715;48.546;9.896;2023-07-28T08:42:00;3.90;;;1.87;;
21114;SDS011;10715;48.546;9.896;2023-07-28T08:44:29;2.93;;;2.73;;
21114;SDS011;10715;48.546;9.896;2023-07-28T08:46:57;3.73;;;1.53;;
21114;SDS011;10715;48.546;9.896;2023-07-28T08:49:23;1.40;;;1.30;;
21114;SDS011;10715;48.546;9.896;2023-07-28T08:51:49;1.70;;;1.60;;
21114;SDS011;10715;48.546;9.896;2023-07-28T08:54:16;2.57;;;1.53;;
21114;SDS011;10715;48.546;9.896;2023-07-28T08:56:45;3.10;;;1.73;;
21114;SDS011;10715;48.546;9.896;2023-07-28T08:59:10;4.10;;;1.57;;
21114;SDS011;10715;48.546;9.896;2023-07-28T09:01:39;2.60;;;1.17;;
21114;SDS011;10715;48.546;9.896;2023-07-28T09:04:09;1.60;;;1.20;;
21114;SDS011;10715;48.546;9.896;2023-07-28T09:06:35;2.00;;;1.57;;
21114;SDS011;10715;48.546;9.896;2023-07-28T09:09:01;1.50;;;1.30;;
21114;SDS011;10715;48.546;9.896;2023-07-28T09:11:31;1.73;;;1.17;;
21114;SDS011;10715;48.546;9.896;2023-07-28T09:13:59;5.07;;;1.73;;
21114;SDS011;10715;48.546;9.896;2023-07-28T09:16:25;2.50;;;1.30;;
21114;SDS011;10715;48.546;9.896;2023-07-28T09:19:04;2.60;;;0.80;;
21114;SDS011;10715;48.546;9.896;2023-07-28T09:21:33;1.50;;;1.30;;
21114;SDS011;10715;48.546;9.896;2023-07-28T09:24:00;11.03;;;5.43;;
21114;SDS011;10715;48.546;9.896;2023-07-28T09:26:41;7.73;;;5.37;;
21114;SDS011;10715;48.546;9.896;2023-07-28T09:29:19;1.63;;;1.53;;
21114;SDS011;10715;48.546;9.896;2023-07-28T09:31:46;2.23;;;0.90;;
21114;SDS011;10715;48.546;9.896;2023-07-28T09:34:22;4.13;;;1.03;;
21114;SDS011;10715;48.546;9.896;2023-07-28T09:36:49;1.70;;;1.17;;
21114;SDS011;10715;48.546;9.896;2023-07-28T09:39:15;1.97;;;1.27;;
21114;SDS011;10715;48.546;9.896;2023-07-28T09:41:42;1.40;;;0.90;;
21114;SDS011;10715;48.546;9.896;2023-07-28T09:44:11;1.47;;;1.17;;
21114;SDS011;10715;48.546;9.896;2023-07-28T09:46:37;1.20;;;1.03;;
21114;SDS011;10715;48.546;9.896;2023-07-28T09:49:19;4.40;;;1.37;;
21114;SDS011;10715;48.546;9.896;2023-07-28T09:52:08;3.90;;;1.03;;
21114;SDS011;10715;48.546;9.896;2023-07-28T09:54:41;1.63;;;1.20;;
21114;SDS011;10715;48.546;9.896;2023-07-28T09:57:12;1.60;;;1.40;;
21114;SDS011;10715;48.546;9.896;2023-07-28T09:59:40;1.40;;;0.90;;
21114;SDS011;10715;48.546;9.896;2023-07-28T10:02:07;2.57;;;1.50;;
21114;SDS011;10715;48.546;9.896;2023-07-28T10:04:33;5.80;;;0.90;;
21114;SDS011;10715;48.546;9.896;2023-07-28T10:06:59;1.97;;;1.40;;
21114;SDS011;10715;48.546;9.896;2023-07-28T10:09:27;1.73;;;1.63;;
21114;SDS011;10715;48.546;9.896;2023-07-28T10:11:55;2.00;;;1.67;;
21114;SDS011;10715;48.546;9.896;2023-07-28T10:14:34;4.53;;;0.90;;
21114;SDS011;10715;48.546;9.896;2023-07-28T10:17:03;1.60;;;1.13;;
21114;SDS011;10715;48.546;9.896;2023-07-28T10:19:34;1.50;;;1.23;;
21114;SDS011;10715;48.546;9.896;2023-07-28T10:22:08;2.30;;;0.97;;
21114;SDS011;10715;48.546;9.896;2023-07-28T10:24:54;3.00;;;1.13;;
21114;SDS011;10715;48.546;9.896;2023-07-28T10:27:36;1.60;;;1.10;;
21114;SDS011;10715;48.546;9.896;2023-07-28T10:30:04;2.37;;;1.00;;
21114;SDS011;10715;48.546;9.896;2023-07-28T10:32:37;1.57;;;0.93;;
21114;SDS011;10715;48.546;9.896;2023-07-28T10:37:43;1.70;;;1.40;;
21114;SDS011;10715;48.546;9.896;2023-07-28T10:40:30;2.93;;;1.07;;
21114;SDS011;10715;48.546;9.896;2023-07-28T10:43:00;5.40;;;1.00;;
21114;SDS011;10715;48.546;9.896;2023-07-28T10:45:28;4.00;;;1.10;;
21114;SDS011;10715;48.546;9.896;2023-07-28T10:47:55;1.33;;;0.90;;
21114;SDS011;10715;48.546;9.896;2023-07-28T10:50:25;1.53;;;1.17;;
21114;SDS011;10715;48.546;9.896;2023-07-28T10:52:56;1.40;;;0.80;;
21114;SDS011;10715;48.546;9.896;2023-07-28T10:55:22;3.93;;;1.43;;
21114;SDS011;10715;48.546;9.896;2023-07-28T10:57:50;2.30;;;1.30;;
21114;SDS011;10715;48.546;9.896;2023-07-28T11:00:17;1.50;;;1.40;;
21114;SDS011;10715;48.546;9.896;2023-07-28T11:02:44;2.70;;;1.10;;
21114;SDS011;10715;48.546;9.896;2023-07-28T11:05:12;5.33;;;1.00;;
21114;SDS011;10715;48.546;9.896;2023-07-28T11:07:44;2.27;;;1.40;;
21114;SDS011;10715;48.546;9.896;2023-07-28T11:10:10;1.77;;;1.30;;
21114;SDS011;10715;48.546;9.896;2023-07-28T11:12:43;1.40;;;0.80;;
21114;SDS011;10715;48.546;9.896;2023-07-28T11:15:10;1.30;;;0.87;;
21114;SDS011;10715;48.546;9.896;2023-07-28T11:17:38;1.53;;;1.10;;
21114;SDS011;10715;48.546;9.896;2023-07-28T11:20:14;1.20;;;0.70;;
21114;SDS011;10715;48.546;9.896;2023-07-28T11:22:57;2.70;;;1.07;;
21114;SDS011;10715;48.546;9.896;2023-07-28T11:25:25;2.30;;;1.50;;
21114;SDS011;10715;48.546;9.896;2023-07-28T11:27:52;1.20;;;0.77;;
21114;SDS011;10715;48.546;9.896;2023-07-28T11:30:18;2.30;;;0.87;;
21114;SDS011;10715;48.546;9.896;2023-07-28T11:32:45;1.27;;;0.80;;
21114;SDS011;10715;48.546;9.896;2023-07-28T11:35:13;4.00;;;0.80;;
21114;SDS011;10715;48.546;9.896;2023-07-28T11:37:40;2.97;;;0.90;;
21114;SDS011;10715;48.546;9.896;2023-07-28T11:40:07;3.43;;;0.90;;
21114;SDS011;10715;48.546;9.896;2023-07-28T11:42:41;1.50;;;1.20;;
21114;SDS011;10715;48.546;9.896;2023-07-28T11:45:12;1.47;;;0.90;;
21114;SDS011;10715;48.546;9.896;2023-07-28T11:47:39;3.83;;;1.37;;
21114;SDS011;10715;48.546;9.896;2023-07-28T11:50:05;2.60;;;1.07;;
21114;SDS011;10715;48.546;9.896;2023-07-28T11:52:34;2.00;;;1.23;;
21114;SDS011;10715;48.546;9.896;2023-07-28T11:55:02;1.60;;;1.00;;
21114;SDS011;10715;48.546;9.896;2023-07-28T11:57:30;5.47;;;0.93;;
21114;SDS011;10715;48.546;9.896;2023-07-28T11:59:56;1.30;;;1.00;;
21114;SDS011;10715;48.546;9.896;2023-07-28T12:02:26;1.23;;;0.83;;
21114;SDS011;10715;48.546;9.896;2023-07-28T12:04:53;2.47;;;1.00;;
21114;SDS011;10715;48.546;9.896;2023-07-28T12:07:26;1.97;;;0.93;;
21114;SDS011;10715;48.546;9.896;2023-07-28T12:09:54;1.23;;;1.13;;
21114;SDS011;10715;48.546;9.896;2023-07-28T12:12:25;1.57;;;1.00;;
21114;SDS011;10715;48.546;9.896;2023-07-28T12:14:54;1.63;;;0.80;;
21114;SDS011;10715;48.546;9.896;2023-07-28T12:17:21;1.50;;;1.00;;
21114;SDS011;10715;48.546;9.896;2023-07-28T12:20:03;1.30;;;1.00;;
21114;SDS011;10715;48.546;9.896;2023-07-28T12:22:40;1.60;;;1.30;;
21114;SDS011;10715;48.546;9.896;2023-07-28T12:25:07;1.40;;;0.90;;
21114;SDS011;10715;48.546;9.896;2023-07-28T12:27:33;1.20;;;0.90;;
21114;SDS011;10715;48.546;9.896;2023-07-28T12:29:59;1.20;;;0.93;;
21114;SDS011;10715;48.546;9.896;2023-07-28T12:32:26;1.97;;;1.00;;
21114;SDS011;10715;48.546;9.896;2023-07-28T12:34:52;4.03;;;0.80;;
21114;SDS011;10715;48.546;9.896;2023-07-28T12:37:18;1.40;;;1.00;;
21114;SDS011;10715;48.546;9.896;2023-07-28T12:39:44;1.50;;;1.03;;
21114;SDS011;10715;48.546;9.896;2023-07-28T12:42:10;1.27;;;1.13;;
21114;SDS011;10715;48.546;9.896;2023-07-28T12:44:37;4.80;;;1.10;;
21114;SDS011;10715;48.546;9.896;2023-07-28T12:47:03;2.00;;;1.23;;
21114;SDS011;10715;48.546;9.896;2023-07-28T12:49:30;1.87;;;1.30;;
21114;SDS011;10715;48.546;9.896;2023-07-28T12:51:56;2.80;;;1.20;;
21114;SDS011;10715;48.546;9.896;2023-07-28T12:54:26;1.30;;;0.90;;
21114;SDS011;10715;48.546;9.896;2023-07-28T12:56:55;2.30;;;2.10;;
21114;SDS011;10715;48.546;9.896;2023-07-28T12:59:21;1.60;;;1.37;;
21114;SDS011;10715;48.546;9.896;2023-07-28T13:01:46;1.80;;;1.17;;
21114;SDS011;10715;48.546;9.896;2023-07-28T13:04:12;1.10;;;0.77;;
21114;SDS011;10715;48.546;9.896;2023-07-28T13:06:38;2.00;;;1.37;;
21114;SDS011;10715;48.546;9.896;2023-07-28T13:09:06;1.70;;;1.00;;
21114;SDS011;10715;48.546;9.896;2023-07-28T13:11:33;1.63;;;0.70;;
21114;SDS011;10715;48.546;9.896;2023-07-28T13:13:59;2.33;;;1.20;;
21114;SDS011;10715;48.546;9.896;2023-07-28T13:16:25;1.80;;;0.97;;
21114;SDS011;10715;48.546;9.896;2023-07-28T13:18:52;4.03;;;1.10;;
21114;SDS011;10715;48.546;9.896;2023-07-28T13:21:18;1.53;;;1.43;;
21114;SDS011;10715;48.546;9.896;2023-07-28T13:23:43;2.20;;;1.70;;
21114;SDS011;10715;48.546;9.896;2023-07-28T13:26:09;1.63;;;0.93;;
21114;SDS011;10715;48.546;9.896;2023-07-28T13:28:35;1.37;;;1.23;;
21114;SDS011;10715;48.546;9.896;2023-07-28T13:31:01;3.90;;;1.47;;
21114;SDS011;10715;48.546;9.896;2023-07-28T13:33:28;2.40;;;1.17;;
21114;SDS011;10715;48.546;9.896;2023-07-28T13:35:54;1.40;;;1.30;;
21114;SDS011;10715;48.546;9.896;2023-07-28T13:38:19;1.30;;;1.10;;
21114;SDS011;10715;48.546;9.896;2023-07-28T13:40:45;1.73;;;1.63;;
21114;SDS011;10715;48.546;9.896;2023-07-28T13:43:11;1.30;;;1.20;;
21114;SDS011;10715;48.546;9.896;2023-07-28T13:45:36;2.67;;;2.00;;
21114;SDS011;10715;48.546;9.896;2023-07-28T13:48:02;3.87;;;1.13;;
21114;SDS011;10715;48.546;9.896;2023-07-28T13:50:28;3.40;;;1.17;;
21114;SDS011;10715;48.546;9.896;2023-07-28T13:52:54;1.30;;;1.10;;
21114;SDS011;10715;48.546;9.896;2023-07-28T13:55:19;3.33;;;0.80;;
21114;SDS011;10715;48.546;9.896;2023-07-28T13:57:45;1.47;;;1.10;;
21114;SDS011;10715;48.546;9.896;2023-07-28T14:00:11;1.30;;;0.90;;
21114;SDS011;10715;48.546;9.896;2023-07-28T14:02:38;2.63;;;1.70;;
21114;SDS011;10715;48.546;9.896;2023-07-28T14:05:04;2.10;;;1.13;;
21114;SDS011;10715;48.546;9.896;2023-07-28T14:07:31;1.47;;;0.77;;
21114;SDS011;10715;48.546;9.896;2023-07-28T14:09:57;1.93;;;1.10;;
21114;SDS011;10715;48.546;9.896;2023-07-28T14:12:23;2.07;;;1.30;;
21114;SDS011;10715;48.546;9.896;2023-07-28T14:14:48;1.40;;;0.90;;
21114;SDS011;10715;48.546;9.896;2023-07-28T14:17:17;1.87;;;1.10;;
21114;SDS011;10715;48.546;9.896;2023-07-28T14:19:42;1.47;;;1.10;;
21114;SDS011;10715;48.546;9.896;2023-07-28T14:22:08;3.77;;;1.03;;
21114;SDS011;10715;48.546;9.896;2023-07-28T14:24:34;1.60;;;1.10;;
21114;SDS011;10715;48.546;9.896;2023-07-28T14:27:00;1.73;;;1.17;;
21114;SDS011;10715;48.546;9.896;2023-07-28T14:29:26;1.97;;;0.80;;
21114;SDS011;10715;48.546;9.896;2023-07-28T14:31:51;1.03;;;0.73;;
21114;SDS011;10715;48.546;9.896;2023-07-28T14:34:17;3.00;;;1.53;;
21114;SDS011;10715;48.546;9.896;2023-07-28T14:36:43;1.93;;;1.30;;
21114;SDS011;10715;48.546;9.896;2023-07-28T14:39:08;2.10;;;1.33;;
21114;SDS011;10715;48.546;9.896;2023-07-28T14:41:35;1.87;;;1.10;;
21114;SDS011;10715;48.546;9.896;2023-07-28T14:44:00;1.77;;;1.50;;
21114;SDS011;10715;48.546;9.896;2023-07-28T14:46:26;2.37;;;1.40;;
21114;SDS011;10715;48.546;9.896;2023-07-28T14:48:53;1.53;;;1.33;;
21114;SDS011;10715;48.546;9.896;2023-07-28T14:51:19;1.63;;;1.53;;
21114;SDS011;10715;48.546;9.896;2023-07-28T14:53:45;2.33;;;2.10;;